sensor_id;sensor_type;location;lat;lon;timestamp;pressure;altitude;pressure_sealevel;temperature;humidity
56944;BME280;42848;42.524;12.052;2022-09-13T00:00:53;96673.41;;;20.37;100.00
56944;BME280;42848;42.524;12.052;2022-09-13T00:03:20;96676.75;;;20.05;100.00
56944;BME280;42848;42.524;12.052;2022-09-13T00:05:46;96680.13;;;20.39;100.00
56944;BME280;42848;42.524;12.052;2022-09-13T00:08:12;96666.56;;;20.13;100.00
56944;BME280;42848;42.524;12.052;2022-09-13T00:10:39;96676.16;;;20.37;100.00
56944;BME280;42848;42.524;12.052;2022-09-13T00:13:07;96669.53;;;20.45;100.00
56944;BME280;42848;42.524;12.052;2022-09-13T00:15:34;96673.91;;;20.50;100.00
56944;BME280;42848;42.524;12.052;2022-09-13T00:17:59;96669.16;;;20.43;100.00
56944;BME280;42848;42.524;12.052;2022-09-13T00:20:25;96669.19;;;20.50;100.00
56944;BME280;42848;42.524;12.052;2022-09-13T00:22:51;96668.94;;;20.14;100.00
56944;BME280;42848;42.524;12.052;2022-09-13T00:25:18;96684.91;;;19.91;100.00
56944;BME280;42848;42.524;12.052;2022-09-13T00:27:43;96672.59;;;20.36;100.00
56944;BME280;42848;42.524;12.052;2022-09-13T00:30:10;96671.38;;;20.27;100.00
56944;BME280;42848;42.524;12.052;2022-09-13T00:32:37;96673.66;;;20.14;100.00
56944;BME280;42848;42.524;12.052;2022-09-13T00:35:04;96683.50;;;20.15;100.00
56944;BME280;42848;42.524;12.052;2022-09-13T00:37:30;96682.44;;;20.34;100.00
56944;BME280;42848;42.524;12.052;2022-09-13T00:39:58;96680.03;;;20.22;100.00
56944;BME280;42848;42.524;12.052;2022-09-13T00:42:31;96688.31;;;20.29;100.00
56944;BME280;42848;42.524;12.052;2022-09-13T00:47:58;96689.66;;;20.49;100.00
56944;BME280;42848;42.524;12.052;2022-09-13T00:50:39;96689.25;;;20.47;100.00
56944;BME280;42848;42.524;12.052;2022-09-13T00:53:09;96684.63;;;20.10;100.00
56944;BME280;42848;42.524;12.052;2022-09-13T00:55:43;96688.00;;;20.41;100.00
56944;BME280;42848;42.524;12.052;2022-09-13T00:58:19;96684.50;;;20.44;100.00
56944;BME280;42848;42.524;12.052;2022-09-13T01:00:46;96687.56;;;20.35;100.00
56944;BME280;42848;42.524;12.052;2022-09-13T01:03:14;96683.34;;;20.45;100.00
56944;BME280;42848;42.524;12.052;2022-09-13T01:05:44;96683.34;;;20.45;100.00
56944;BME280;42848;42.524;12.052;2022-09-13T01:08:11;96681.75;;;20.48;100.00
56944;BME280;42848;42.524;12.052;2022-09-13T01:10:41;96674.56;;;20.36;100.00
56944;BME280;42848;42.524;12.052;2022-09-13T01:13:19;96665.06;;;20.26;100.00
56944;BME280;42848;42.524;12.052;2022-09-13T01:15:46;96679.00;;;20.44;100.00
56944;BME280;42848;42.524;12.052;2022-09-13T01:18:12;96670.97;;;20.25;100.00
56944;BME280;42848;42.524;12.052;2022-09-13T01:20:54;96667.47;;;20.35;100.00
56944;BME280;42848;42.524;12.052;2022-09-13T01:23:42;96658.81;;;20.36;100.00
56944;BME280;42848;42.524;12.052;2022-09-13T01:32:33;96663.44;;;20.14;100.00
56944;BME280;42848;42.524;12.052;2022-09-13T01:40:42;96666.69;;;19.76;100.00
56944;BME280;42848;42.524;12.052;2022-09-13T01:43:30;96658.72;;;20.18;100.00
56944;BME280;42848;42.524;12.052;2022-09-13T01:46:09;96659.38;;;20.01;100.00
56944;BME280;42848;42.524;12.052;2022-09-13T01:49:06;96652.75;;;20.09;100.00
56944;BME280;42848;42.524;12.052;2022-09-13T01:51:47;96661.06;;;20.16;100.00
56944;BME280;42848;42.524;12.052;2022-09-13T01:54:19;96658.25;;;20.09;100.00
56944;BME280;42848;42.524;12.052;2022-09-13T01:59:52;96646.75;;;19.97;100.00
56944;BME280;42848;42.524;12.052;2022-09-13T02:02:38;96649.91;;;19.95;100.00
56944;BME280;42848;42.524;12.052;2022-09-13T02:05:12;96643.94;;;19.86;100.00
56944;BME280;42848;42.524;12.052;2022-09-13T02:07:47;96646.97;;;19.74;100.00
56944;BME280;42848;42.524;12.052;2022-09-13T02:10:24;96641.19;;;19.86;100.00
56944;BME280;42848;42.524;12.052;2022-09-13T02:12:52;96635.34;;;19.98;100.00
56944;BME280;42848;42.524;12.052;2022-09-13T02:15:40;96642.09;;;20.04;100.00
56944;BME280;42848;42.524;12.052;2022-09-13T02:18:38;96643.72;;;19.57;100.00
56944;BME280;42848;42.524;12.052;2022-09-13T02:21:17;96641.84;;;19.69;100.00
56944;BME280;42848;42.524;12.052;2022-09-13T02:23:50;96641.47;;;19.74;100.00
56944;BME280;42848;42.524;12.052;2022-09-13T02:26:19;96645.00;;;19.74;100.00
56944;BME280;42848;42.524;12.052;2022-09-13T02:28:51;96630.88;;;19.76;100.00
56944;BME280;42848;42.524;12.052;2022-09-13T02:31:29;96649.41;;;19.82;100.00
56944;BME280;42848;42.524;12.052;2022-09-13T02:33:58;96638.81;;;19.84;100.00
56944;BME280;42848;42.524;12.052;2022-09-13T02:36:30;96645.06;;;19.81;100.00
56944;BME280;42848;42.524;12.052;2022-09-13T02:39:12;96654.53;;;19.84;100.00
56944;BME280;42848;42.524;12.052;2022-09-13T02:44:47;96645.13;;;19.85;100.00
56944;BME280;42848;42.524;12.052;2022-09-13T02:50:18;96649.06;;;19.91;100.00
56944;BME280;42848;42.524;12.052;2022-09-13T03:01:00;96641.47;;;19.74;100.00
56944;BME280;42848;42.524;12.052;2022-09-13T03:03:26;96636.38;;;19.76;100.00
56944;BME280;42848;42.524;12.052;2022-09-13T03:05:52;96639.47;;;19.71;100.00
56944;BME280;42848;42.524;12.052;2022-09-13T03:08:19;96641.91;;;19.76;100.00
56944;BME280;42848;42.524;12.052;2022-09-13T03:16:28;96634.78;;;19.75;100.00
56944;BME280;42848;42.524;12.052;2022-09-13T03:19:21;96634.75;;;19.71;100.00
56944;BME280;42848;42.524;12.052;2022-09-13T03:24:39;96638.69;;;19.67;100.00
56944;BME280;42848;42.524;12.052;2022-09-13T03:30:05;96621.22;;;19.55;100.00
56944;BME280;42848;42.524;12.052;2022-09-13T03:45:33;96610.19;;;19.52;100.00
56944;BME280;42848;42.524;12.052;2022-09-13T03:48:02;96615.72;;;19.55;100.00
56944;BME280;42848;42.524;12.052;2022-09-13T03:50:28;96617.59;;;19.44;100.00
56944;BME280;42848;42.524;12.052;2022-09-13T03:53:00;96618.94;;;19.57;100.00
56944;BME280;42848;42.524;12.052;2022-09-13T03:55:29;96621.53;;;19.47;100.00
56944;BME280;42848;42.524;12.052;2022-09-13T03:57:56;96620.81;;;19.53;100.00
56944;BME280;42848;42.524;12.052;2022-09-13T04:00:22;96623.50;;;19.46;100.00
56944;BME280;42848;42.524;12.052;2022-09-13T04:02:48;96621.81;;;19.31;100.00
56944;BME280;42848;42.524;12.052;2022-09-13T04:05:14;96629.00;;;19.46;100.00
56944;BME280;42848;42.524;12.052;2022-09-13T04:07:39;96629.56;;;19.63;100.00
56944;BME280;42848;42.524;12.052;2022-09-13T04:10:05;96619.94;;;19.42;100.00
56944;BME280;42848;42.524;12.052;2022-09-13T04:12:32;96618.03;;;19.09;100.00
56944;BME280;42848;42.524;12.052;2022-09-13T04:14:57;96619.78;;;19.28;100.00
56944;BME280;42848;42.524;12.052;2022-09-13T04:17:23;96629.69;;;19.32;100.00
56944;BME280;42848;42.524;12.052;2022-09-13T04:19:48;96621.72;;;19.24;100.00
56944;BME280;42848;42.524;12.052;2022-09-13T04:22:14;96621.72;;;19.20;100.00
56944;BME280;42848;42.524;12.052;2022-09-13T04:24:40;96624.09;;;19.22;100.00
56944;BME280;42848;42.524;12.052;2022-09-13T04:27:07;96622.34;;;19.07;100.00
56944;BME280;42848;42.524;12.052;2022-09-13T04:29:33;96626.47;;;18.90;100.00
56944;BME280;42848;42.524;12.052;2022-09-13T04:31:59;96628.75;;;19.18;100.00
56944;BME280;42848;42.524;12.052;2022-09-13T04:34:25;96621.56;;;19.06;100.00
56944;BME280;42848;42.524;12.052;2022-09-13T04:36:51;96625.66;;;19.23;100.00
56944;BME280;42848;42.524;12.052;2022-09-13T04:39:21;96625.50;;;19.09;100.00
56944;BME280;42848;42.524;12.052;2022-09-13T04:41:48;96627.03;;;19.02;100.00
56944;BME280;42848;42.524;12.052;2022-09-13T04:44:16;96629.34;;;19.00;100.00
56944;BME280;42848;42.524;12.052;2022-09-13T04:46:45;96627.03;;;19.02;100.00
56944;BME280;42848;42.524;12.052;2022-09-13T04:49:12;96614.59;;;19.19;100.00
56944;BME280;42848;42.524;12.052;2022-09-13T04:51:39;96618.97;;;19.24;100.00
56944;BME280;42848;42.524;12.052;2022-09-13T04:54:05;96622.81;;;19.12;100.00
56944;BME280;42848;42.524;12.052;2022-09-13T04:56:31;96617.63;;;19.07;100.00
56944;BME280;42848;42.524;12.052;2022-09-13T04:58:56;96623.84;;;19.00;100.00
56944;BME280;42848;42.524;12.052;2022-09-13T05:01:23;96631.84;;;19.13;100.00
56944;BME280;42848;42.524;12.052;2022-09-13T05:03:50;96623.50;;;19.06;100.00
56944;BME280;42848;42.524;12.052;2022-09-13T05:06:18;96626.09;;;18.91;100.00
56944;BME280;42848;42.524;12.052;2022-09-13T05:08:49;96628.53;;;18.96;100.00
56944;BME280;42848;42.524;12.052;2022-09-13T05:11:16;96630.88;;;18.94;100.00
56944;BME280;42848;42.524;12.052;2022-09-13T05:13:42;96633.28;;;18.99;100.00
56944;BME280;42848;42.524;12.052;2022-09-13T05:16:07;96627.09;;;19.10;100.00
56944;BME280;42848;42.524;12.052;2022-09-13T05:18:35;96623.66;;;19.20;100.00
56944;BME280;42848;42.524;12.052;2022-09-13T05:21:03;96618.94;;;18.83;100.00
56944;BME280;42848;42.524;12.052;2022-09-13T05:23:30;96625.09;;;19.07;100.00
56944;BME280;42848;42.524;12.052;2022-09-13T05:25:59;96617.13;;;18.94;100.00
56944;BME280;42848;42.524;12.052;2022-09-13T05:28:27;96621.94;;;19.04;100.00
56944;BME280;42848;42.524;12.052;2022-09-13T05:30:57;96619.97;;;19.05;100.00
56944;BME280;42848;42.524;12.052;2022-09-13T05:33:27;96626.34;;;19.13;100.00
56944;BME280;42848;42.524;12.052;2022-09-13T05:35:53;96625.56;;;19.12;100.00
56944;BME280;42848;42.524;12.052;2022-09-13T05:38:19;96630.59;;;19.07;100.00
56944;BME280;42848;42.524;12.052;2022-09-13T05:40:46;96627.81;;;19.03;100.00
56944;BME280;42848;42.524;12.052;2022-09-13T05:43:12;96629.84;;;19.10;100.00
56944;BME280;42848;42.524;12.052;2022-09-13T05:45:38;96625.09;;;19.07;100.00
56944;BME280;42848;42.524;12.052;2022-09-13T05:48:04;96624.03;;;19.18;100.00
56944;BME280;42848;42.524;12.052;2022-09-13T05:50:30;96627.25;;;19.27;100.00
56944;BME280;42848;42.524;12.052;2022-09-13T05:52:56;96630.78;;;19.24;100.00
56944;BME280;42848;42.524;12.052;2022-09-13T05:55:22;96622.50;;;19.21;100.00
56944;BME280;42848;42.524;12.052;2022-09-13T05:57:48;96624.50;;;19.24;100.00
56944;BME280;42848;42.524;12.052;2022-09-13T06:00:15;96619.75;;;19.21;100.00
56944;BME280;42848;42.524;12.052;2022-09-13T06:02:41;96625.72;;;19.30;100.00
56944;BME280;42848;42.524;12.052;2022-09-13T06:05:10;96619.06;;;19.31;100.00
56944;BME280;42848;42.524;12.052;2022-09-13T06:07:39;96621.31;;;19.22;100.00
56944;BME280;42848;42.524;12.052;2022-09-13T06:10:06;96617.53;;;18.96;100.00
56944;BME280;42848;42.524;12.052;2022-09-13T06:12:32;96617.63;;;19.07;100.00
56944;BME280;42848;42.524;12.052;2022-09-13T06:14:58;96623.09;;;19.03;100.00
56944;BME280;42848;42.524;12.052;2022-09-13T06:17:24;96620.38;;;19.48;100.00
56944;BME280;42848;42.524;12.052;2022-09-13T06:19:50;96621.72;;;19.65;100.00
56944;BME280;42848;42.524;12.052;2022-09-13T06:22:16;96616.00;;;19.43;100.00
56944;BME280;42848;42.524;12.052;2022-09-13T06:24:41;96614.13;;;19.54;100.00
56944;BME280;42848;42.524;12.052;2022-09-13T06:27:07;96622.50;;;19.62;100.00
56944;BME280;42848;42.524;12.052;2022-09-13T06:29:35;96626.63;;;19.41;100.00
56944;BME280;42848;42.524;12.052;2022-09-13T06:32:04;96627.03;;;19.43;100.00
56944;BME280;42848;42.524;12.052;2022-09-13T06:34:30;96633.78;;;19.53;100.00
56944;BME280;42848;42.524;12.052;2022-09-13T06:36:55;96637.03;;;19.58;100.00
56944;BME280;42848;42.524;12.052;2022-09-13T06:39:21;96639.53;;;19.78;100.00
56944;BME280;42848;42.524;12.052;2022-09-13T06:41:47;96638.59;;;19.59;100.00
56944;BME280;42848;42.524;12.052;2022-09-13T06:44:13;96633.19;;;19.74;100.00
56944;BME280;42848;42.524;12.052;2022-09-13T06:46:39;96635.94;;;19.74;100.00
56944;BME280;42848;42.524;12.052;2022-09-13T06:49:08;96628.13;;;19.76;100.00
56944;BME280;42848;42.524;12.052;2022-09-13T06:51:35;96631.44;;;19.99;100.00
56944;BME280;42848;42.524;12.052;2022-09-13T06:54:02;96635.75;;;19.97;100.00
56944;BME280;42848;42.524;12.052;2022-09-13T06:56:32;96631.75;;;19.87;100.00
56944;BME280;42848;42.524;12.052;2022-09-13T06:59:00;96626.75;;;20.03;100.00
56944;BME280;42848;42.524;12.052;2022-09-13T07:01:36;96625.84;;;19.85;100.00
56944;BME280;42848;42.524;12.052;2022-09-13T07:04:10;96617.69;;;20.03;100.00
56944;BME280;42848;42.524;12.052;2022-09-13T07:06:41;96629.91;;;20.05;100.00
56944;BME280;42848;42.524;12.052;2022-09-13T07:09:12;96631.06;;;20.04;100.00
56944;BME280;42848;42.524;12.052;2022-09-13T07:11:39;96635.94;;;20.29;100.00
56944;BME280;42848;42.524;12.052;2022-09-13T07:14:06;96638.34;;;20.34;100.00
56944;BME280;42848;42.524;12.052;2022-09-13T07:16:34;96641.09;;;20.37;100.00
56944;BME280;42848;42.524;12.052;2022-09-13T07:19:02;96638.81;;;20.43;100.00
56944;BME280;42848;42.524;12.052;2022-09-13T07:21:30;96643.94;;;20.48;100.00
56944;BME280;42848;42.524;12.052;2022-09-13T07:23:57;96647.13;;;20.57;100.00
56944;BME280;42848;42.524;12.052;2022-09-13T07:26:24;96643.19;;;20.55;100.00
56944;BME280;42848;42.524;12.052;2022-09-13T07:28:53;96648.75;;;20.58;100.00
56944;BME280;42848;42.524;12.052;2022-09-13T07:31:25;96654.66;;;20.60;100.00
56944;BME280;42848;42.524;12.052;2022-09-13T07:33:56;96657.78;;;20.55;100.00
56944;BME280;42848;42.524;12.052;2022-09-13T07:36:23;96656.66;;;20.67;100.00
56944;BME280;42848;42.524;12.052;2022-09-13T07:38:49;96657.84;;;20.73;100.00
56944;BME280;42848;42.524;12.052;2022-09-13T07:41:17;96655.13;;;20.77;100.00
56944;BME280;42848;42.524;12.052;2022-09-13T07:43:43;96661.41;;;20.73;100.00
56944;BME280;42848;42.524;12.052;2022-09-13T07:46:10;96662.59;;;20.72;100.00
56944;BME280;42848;42.524;12.052;2022-09-13T07:48:39;96672.47;;;20.81;100.00
56944;BME280;42848;42.524;12.052;2022-09-13T07:51:15;96673.31;;;20.88;100.00
56944;BME280;42848;42.524;12.052;2022-09-13T07:53:43;96672.56;;;20.95;100.00
56944;BME280;42848;42.524;12.052;2022-09-13T07:56:14;96672.56;;;20.95;100.00
56944;BME280;42848;42.524;12.052;2022-09-13T07:58:41;96686.78;;;21.04;100.00
56944;BME280;42848;42.524;12.052;2022-09-13T08:01:17;96685.16;;;20.99;100.00
56944;BME280;42848;42.524;12.052;2022-09-13T08:03:44;96686.22;;;20.73;100.00
56944;BME280;42848;42.524;12.052;2022-09-13T08:06:14;96683.97;;;20.97;100.00
56944;BME280;42848;42.524;12.052;2022-09-13T08:08:40;96689.91;;;20.95;100.00
56944;BME280;42848;42.524;12.052;2022-09-13T08:11:06;96685.16;;;20.96;100.00
56944;BME280;42848;42.524;12.052;2022-09-13T08:13:32;96687.59;;;21.15;100.00
56944;BME280;42848;42.524;12.052;2022-09-13T08:16:03;96688.38;;;21.12;100.00
56944;BME280;42848;42.524;12.052;2022-09-13T08:18:29;96687.97;;;21.07;100.00
56944;BME280;42848;42.524;12.052;2022-09-13T08:20:56;96692.31;;;21.15;100.00
56944;BME280;42848;42.524;12.052;2022-09-13T08:23:23;96689.16;;;21.13;100.00
56944;BME280;42848;42.524;12.052;2022-09-13T08:25:49;96692.31;;;21.18;100.00
56944;BME280;42848;42.524;12.052;2022-09-13T08:28:17;96691.19;;;21.26;100.00
56944;BME280;42848;42.524;12.052;2022-09-13T08:30:46;96697.13;;;21.36;100.00
56944;BME280;42848;42.524;12.052;2022-09-13T08:33:13;96699.44;;;21.23;100.00
56944;BME280;42848;42.524;12.052;2022-09-13T08:35:39;96702.34;;;21.58;100.00
56944;BME280;42848;42.524;12.052;2022-09-13T08:38:06;96711.38;;;21.45;100.00
56944;BME280;42848;42.524;12.052;2022-09-13T08:40:44;96706.66;;;21.63;100.00
56944;BME280;42848;42.524;12.052;2022-09-13T08:45:51;96719.25;;;21.46;100.00
56944;BME280;42848;42.524;12.052;2022-09-13T08:48:22;96725.56;;;21.40;94.78
56944;BME280;42848;42.524;12.052;2022-09-13T08:50:53;96721.22;;;21.32;96.43
56944;BME280;42848;42.524;12.052;2022-09-13T08:53:29;96717.69;;;21.42;96.12
56944;BME280;42848;42.524;12.052;2022-09-13T08:56:12;96719.63;;;21.38;93.79
56944;BME280;42848;42.524;12.052;2022-09-13T09:06:33;96724.84;;;21.93;93.78
56944;BME280;42848;42.524;12.052;2022-09-13T09:09:09;96717.75;;;22.06;100.00
56944;BME280;42848;42.524;12.052;2022-09-13T09:11:53;96722.50;;;21.95;96.42
56944;BME280;42848;42.524;12.052;2022-09-13T09:14:31;96723.28;;;21.95;91.52
56944;BME280;42848;42.524;12.052;2022-09-13T09:17:24;96726.03;;;21.92;97.27
56944;BME280;42848;42.524;12.052;2022-09-13T09:19:53;96723.28;;;22.06;98.81
56944;BME280;42848;42.524;12.052;2022-09-13T09:22:22;96714.59;;;21.97;87.66
56944;BME280;42848;42.524;12.052;2022-09-13T09:24:53;96721.72;;;22.12;92.48
56944;BME280;42848;42.524;12.052;2022-09-13T09:27:20;96718.59;;;22.13;86.43
56944;BME280;42848;42.524;12.052;2022-09-13T09:29:54;96719.34;;;21.89;85.90
56944;BME280;42848;42.524;12.052;2022-09-13T09:35:55;96713.03;;;22.17;89.68
56944;BME280;42848;42.524;12.052;2022-09-13T09:38:37;96704.69;;;22.53;94.75
56944;BME280;42848;42.524;12.052;2022-09-13T09:41:30;96712.19;;;22.49;80.67
56944;BME280;42848;42.524;12.052;2022-09-13T09:46:41;96715.34;;;22.58;87.66
56944;BME280;42848;42.524;12.052;2022-09-13T09:49:29;96716.16;;;22.62;82.10
56944;BME280;42848;42.524;12.052;2022-09-13T09:52:17;96712.25;;;22.41;78.93
56944;BME280;42848;42.524;12.052;2022-09-13T09:54:48;96706.72;;;22.34;80.23
56944;BME280;42848;42.524;12.052;2022-09-13T09:57:14;96713.00;;;22.46;76.78
56944;BME280;42848;42.524;12.052;2022-09-13T09:59:43;96709.84;;;22.47;75.83
56944;BME280;42848;42.524;12.052;2022-09-13T10:02:17;96698.31;;;22.77;84.90
56944;BME280;42848;42.524;12.052;2022-09-13T10:04:55;96696.34;;;22.67;73.55
56944;BME280;42848;42.524;12.052;2022-09-13T10:07:31;96694.81;;;22.59;67.82
56944;BME280;42848;42.524;12.052;2022-09-13T10:10:02;96694.03;;;22.55;62.69
56944;BME280;42848;42.524;12.052;2022-09-13T10:12:35;96696.75;;;22.69;69.66
56944;BME280;42848;42.524;12.052;2022-09-13T10:15:15;96693.56;;;22.74;67.06
56944;BME280;42848;42.524;12.052;2022-09-13T10:18:21;96694.72;;;22.84;69.18
56944;BME280;42848;42.524;12.052;2022-09-13T10:23:43;96700.25;;;22.94;70.21
56944;BME280;42848;42.524;12.052;2022-09-13T10:26:21;96693.09;;;23.04;71.22
56944;BME280;42848;42.524;12.052;2022-09-13T10:28:53;96702.56;;;23.14;69.07
56944;BME280;42848;42.524;12.052;2022-09-13T10:31:30;96694.72;;;22.98;66.52
56944;BME280;42848;42.524;12.052;2022-09-13T10:34:06;96688.25;;;23.22;73.67
56944;BME280;42848;42.524;12.052;2022-09-13T10:36:44;96680.50;;;22.92;69.17
56944;BME280;42848;42.524;12.052;2022-09-13T10:39:16;96677.88;;;23.41;74.61
56944;BME280;42848;42.524;12.052;2022-09-13T10:42:01;96684.16;;;23.48;66.63
56944;BME280;42848;42.524;12.052;2022-09-13T10:44:30;96671.19;;;23.35;68.77
56944;BME280;42848;42.524;12.052;2022-09-13T10:46:58;96679.06;;;23.43;67.89
56944;BME280;42848;42.524;12.052;2022-09-13T10:49:54;96686.28;;;23.26;69.91
56944;BME280;42848;42.524;12.052;2022-09-13T10:52:29;96698.50;;;23.33;71.88
56944;BME280;42848;42.524;12.052;2022-09-13T10:57:52;96689.69;;;23.48;74.21
56944;BME280;42848;42.524;12.052;2022-09-13T11:00:27;96686.59;;;23.39;76.61
56944;BME280;42848;42.524;12.052;2022-09-13T11:03:10;96699.25;;;23.40;76.68
56944;BME280;42848;42.524;12.052;2022-09-13T11:05:49;96694.13;;;23.35;74.99
56944;BME280;42848;42.524;12.052;2022-09-13T11:08:24;96696.03;;;23.52;76.64
56944;BME280;42848;42.524;12.052;2022-09-13T11:22:23;96684.16;;;24.07;72.92
56944;BME280;42848;42.524;12.052;2022-09-13T11:28:21;96674.19;;;24.13;66.21
56944;BME280;42848;42.524;12.052;2022-09-13T11:40:09;96664.13;;;24.30;65.30
56944;BME280;42848;42.524;12.052;2022-09-13T11:45:27;96665.69;;;24.73;66.52
56944;BME280;42848;42.524;12.052;2022-09-13T11:48:02;96669.63;;;24.75;64.94
56944;BME280;42848;42.524;12.052;2022-09-13T11:53:50;96672.16;;;24.62;66.20
56944;BME280;42848;42.524;12.052;2022-09-13T11:55:57;96668.09;;;24.71;68.69
56944;BME280;42848;42.524;12.052;2022-09-13T12:00:57;96665.47;;;24.60;70.80
56944;BME280;42848;42.524;12.052;2022-09-13T12:06:21;96659.94;;;24.56;71.95
56944;BME280;42848;42.524;12.052;2022-09-13T12:08:54;96669.03;;;24.60;70.61
56944;BME280;42848;42.524;12.052;2022-09-13T12:11:26;96668.72;;;24.51;71.40
56944;BME280;42848;42.524;12.052;2022-09-13T12:14:00;96663.16;;;24.85;78.20
56944;BME280;42848;42.524;12.052;2022-09-13T12:16:31;96660.44;;;24.82;72.54
56944;BME280;42848;42.524;12.052;2022-09-13T12:19:01;96661.34;;;24.72;72.44
56944;BME280;42848;42.524;12.052;2022-09-13T12:21:36;96655.44;;;24.70;74.42
56944;BME280;42848;42.524;12.052;2022-09-13T12:24:17;96657.53;;;24.58;73.30
56944;BME280;42848;42.524;12.052;2022-09-13T12:26:47;96654.66;;;24.69;73.79
56944;BME280;42848;42.524;12.052;2022-09-13T12:29:28;96642.66;;;24.76;72.08
56944;BME280;42848;42.524;12.052;2022-09-13T12:32:03;96647.19;;;24.93;71.23
56944;BME280;42848;42.524;12.052;2022-09-13T12:34:53;96633.88;;;24.81;73.33
56944;BME280;42848;42.524;12.052;2022-09-13T12:37:35;96634.22;;;25.17;73.37
56944;BME280;42848;42.524;12.052;2022-09-13T12:40:23;96630.34;;;25.38;74.32
56944;BME280;42848;42.524;12.052;2022-09-13T12:46:35;96626.16;;;25.26;71.92
56944;BME280;42848;42.524;12.052;2022-09-13T12:51:29;96615.41;;;25.55;72.52
56944;BME280;42848;42.524;12.052;2022-09-13T12:56:52;96625.13;;;25.70;71.94
56944;BME280;42848;42.524;12.052;2022-09-13T13:05:02;96614.63;;;25.55;69.64
56944;BME280;42848;42.524;12.052;2022-09-13T13:07:30;96612.81;;;25.71;68.70
56944;BME280;42848;42.524;12.052;2022-09-13T13:09:57;96624.28;;;25.73;63.92
56944;BME280;42848;42.524;12.052;2022-09-13T13:12:37;96625.25;;;25.87;65.85
56944;BME280;42848;42.524;12.052;2022-09-13T13:17:55;96623.56;;;25.93;69.83
56944;BME280;42848;42.524;12.052;2022-09-13T13:25:59;96649.06;;;25.88;63.16
56944;BME280;42848;42.524;12.052;2022-09-13T13:41:54;96649.75;;;26.19;60.76
56944;BME280;42848;42.524;12.052;2022-09-13T13:59:47;96638.56;;;26.46;63.97
56944;BME280;42848;42.524;12.052;2022-09-13T14:02:20;96639.34;;;26.66;64.02
56944;BME280;42848;42.524;12.052;2022-09-13T14:05:07;96639.00;;;26.64;64.76
56944;BME280;42848;42.524;12.052;2022-09-13T14:21:01;96620.06;;;26.75;68.14
56944;BME280;42848;42.524;12.052;2022-09-13T14:23:28;96619.94;;;26.62;70.10
56944;BME280;42848;42.524;12.052;2022-09-13T14:25:57;96628.78;;;26.77;67.04
56944;BME280;42848;42.524;12.052;2022-09-13T14:28:24;96631.28;;;26.91;69.72
56944;BME280;42848;42.524;12.052;2022-09-13T14:30:54;96616.84;;;26.77;68.33
56944;BME280;42848;42.524;12.052;2022-09-13T14:33:27;96622.94;;;26.91;69.81
56944;BME280;42848;42.524;12.052;2022-09-13T14:35:59;96621.72;;;26.92;72.44
56944;BME280;42848;42.524;12.052;2022-09-13T14:38:27;96629.44;;;27.05;70.32
56944;BME280;42848;42.524;12.052;2022-09-13T14:41:16;96629.56;;;26.98;71.66
56944;BME280;42848;42.524;12.052;2022-09-13T14:43:44;96616.50;;;26.75;68.52
56944;BME280;42848;42.524;12.052;2022-09-13T14:46:24;96616.63;;;26.87;70.78
56944;BME280;42848;42.524;12.052;2022-09-13T14:49:03;96624.84;;;26.94;71.65
56944;BME280;42848;42.524;12.052;2022-09-13T14:51:43;96614.16;;;26.73;73.31
56944;BME280;42848;42.524;12.052;2022-09-13T14:54:27;96607.38;;;26.74;76.74
56944;BME280;42848;42.524;12.052;2022-09-13T14:56:57;96610.38;;;26.63;75.99
56944;BME280;42848;42.524;12.052;2022-09-13T15:00:14;96604.50;;;26.78;72.63
56944;BME280;42848;42.524;12.052;2022-09-13T15:02:29;96602.00;;;26.83;78.00
56944;BME280;42848;42.524;12.052;2022-09-13T15:04:59;96609.91;;;26.85;75.60
56944;BME280;42848;42.524;12.052;2022-09-13T15:07:29;96604.28;;;26.88;82.24
56944;BME280;42848;42.524;12.052;2022-09-13T15:10:07;96611.50;;;26.86;80.91
56944;BME280;42848;42.524;12.052;2022-09-13T15:12:34;96607.56;;;26.83;81.48
56944;BME280;42848;42.524;12.052;2022-09-13T15:17:59;96603.16;;;26.66;81.06
56944;BME280;42848;42.524;12.052;2022-09-13T15:20:28;96610.38;;;26.63;83.23
56944;BME280;42848;42.524;12.052;2022-09-13T15:22:55;96607.00;;;26.72;82.52
56944;BME280;42848;42.524;12.052;2022-09-13T15:25:25;96605.63;;;26.60;84.55
56944;BME280;42848;42.524;12.052;2022-09-13T15:27:53;96601.44;;;26.52;85.75
56944;BME280;42848;42.524;12.052;2022-09-13T15:30:24;96612.97;;;26.51;82.11
56944;BME280;42848;42.524;12.052;2022-09-13T15:33:04;96609.81;;;26.52;83.07
56944;BME280;42848;42.524;12.052;2022-09-13T15:35:35;96608.72;;;26.66;81.32
56944;BME280;42848;42.524;12.052;2022-09-13T15:38:22;96604.22;;;26.72;82.39
56944;BME280;42848;42.524;12.052;2022-09-13T15:43:36;96615.94;;;26.63;84.10
56944;BME280;42848;42.524;12.052;2022-09-13T15:46:02;96620.63;;;26.67;82.55
56944;BME280;42848;42.524;12.052;2022-09-13T15:48:31;96620.28;;;26.64;84.63
56944;BME280;42848;42.524;12.052;2022-09-13T15:51:12;96617.38;;;26.28;86.89
56944;BME280;42848;42.524;12.052;2022-09-13T15:53:40;96617.28;;;26.32;84.74
56944;BME280;42848;42.524;12.052;2022-09-13T15:56:07;96623.06;;;26.45;83.99
56944;BME280;42848;42.524;12.052;2022-09-13T15:58:34;96613.38;;;26.29;85.57
56944;BME280;42848;42.524;12.052;2022-09-13T16:01:01;96609.94;;;26.22;84.81
56944;BME280;42848;42.524;12.052;2022-09-13T16:03:27;96606.16;;;25.89;84.31
56944;BME280;42848;42.524;12.052;2022-09-13T16:05:53;96608.78;;;26.19;82.44
56944;BME280;42848;42.524;12.052;2022-09-13T16:08:19;96598.34;;;26.03;83.61